Napa, CA (94558)

4:20 AM PDT on August 30, 2015 (GMT -0700)
Old Soda Springs Rd 850 ft | | Change Station
CLOSE
Current Station
Personal Weather Station
Location: Napa, CA
Elevation: 846 ft
Nearby Weather Stations

Elev 846 ft 38.38 °N, 122.27 °W | Updated 55 seconds ago

Partly Cloudy
Partly Cloudy
57.7 °F
Feels Like 57.7 °F
N
0.0
Wind Variable Wind from ENE
Gusts 0.0 mph

Today
High -- | Low -- °F
--% Chance of Precip.
Yesterday
High -- | Low -- °F
Precip. -- in
6:36 AM 7:42 PM
Full, 99% visible
Pressure 29.97 in
Visibility 10.0 miles
Clouds Mostly Cloudy 1200 ft
Mostly Cloudy 2300 ft
Dew Point 55 °F
Humidity 92%
Rainfall 0.00 in
Snow Depth Not available.
UV 0 out of 12
Pollen 7.90 out of 12
Air Quality Not available.
Flu Activity Not available.
METAR KAPC 301054Z AUTO 00000KT 10SM BKN012 BKN023 16/14 A2999 RMK AO2 SLP147 T01560144
Pressure 29.97 in
Visibility 10.0 miles
Clouds Mostly Cloudy 1200 ft
Mostly Cloudy 2300 ft
Dew Point 55 °F
Humidity 92%
Rainfall 0.00 in
Snow Depth Not available.
UV 0 out of 12
Pollen 7.90 out of 12
Air Quality Not available.
Flu Activity Not available.
METAR KAPC 301054Z AUTO 00000KT 10SM BKN012 BKN023 16/14 A2999 RMK AO2 SLP147 T01560144

10-Day Weather Forecast

×

Almanac

Astronomy

Aug. 30, 2015 Rise Set
Actual Time
Civil Twilight
Nautical Twilight
Astronomical Twilight
Moon
Length of Visible Light
Length of Day
Tomorrow will be .
, % of the Moon is Illuminated

Today's Extremes

State Highs State Lows

Community

WunderPhotos

Upload Photos

1,850,929 photos uploaded!

WunderBlogs® & News

Nearby

Air Quality

  Air Quality AQ Index Pollutant
Not available.

Snow Depth

Station Depth Elevation

Earthquake Activity

City Distance Mag. Time & Date
Minimum magnitude displayed is 2.5.

Coastal Water Temperatures

Place Temperature

Stations

Nearby Weather Stations

Station Location Temp. Windchill Dew Point Humidity Wind Precip. Elev Updated Type